createdAt,value
2017-07-29T00:00:42.442Z,99.99
2017-07-29T00:01:42.727Z,99.99
2017-07-29T00:02:42.714Z,99.99
2017-07-29T00:03:42.702Z,99.99
2017-07-29T00:04:42.683Z,99.99
2017-07-29T00:05:42.683Z,99.99
2017-07-29T00:06:42.654Z,99.99
2017-07-29T00:07:42.631Z,99.99
2017-07-29T00:08:42.314Z,99.99
2017-07-29T00:09:42.302Z,99.99
2017-07-29T00:10:42.280Z,99.99
2017-07-29T00:11:42.572Z,99.99
2017-07-29T00:12:42.550Z,99.99
2017-07-29T00:13:42.533Z,99.99
2017-07-29T00:14:42.219Z,99.99
2017-07-29T00:15:42.513Z,99.99
2017-07-29T00:16:42.187Z,99.99
2017-07-29T00:17:42.472Z,99.99
2017-07-29T00:18:42.143Z,99.99
2017-07-29T00:19:42.443Z,99.99
2017-07-29T00:20:42.421Z,99.99
2017-07-29T00:21:42.105Z,99.99
2017-07-29T00:22:42.392Z,99.99
2017-07-29T00:23:42.382Z,99.99
2017-07-29T00:24:42.362Z,99.99
2017-07-29T00:25:42.341Z,99.99
2017-07-29T00:26:42.322Z,99.99
2017-07-29T00:27:42.312Z,99.99
2017-07-29T00:28:41.983Z,99.99
2017-07-29T00:29:41.973Z,99.99
2017-07-29T00:30:42.260Z,99.99
2017-07-29T00:31:42.242Z,99.99
2017-07-29T00:32:42.223Z,99.99
2017-07-29T00:33:42.224Z,99.99
2017-07-29T00:34:41.882Z,99.99
2017-07-29T00:35:42.182Z,99.99
2017-07-29T00:36:41.852Z,99.99
2017-07-29T00:37:42.141Z,99.99
2017-07-29T00:38:42.131Z,99.99
2017-07-29T00:39:42.114Z,99.99
2017-07-29T00:40:42.103Z,99.99
2017-07-29T00:41:42.086Z,99.99
2017-07-29T00:42:42.061Z,99.99
2017-07-29T00:43:41.736Z,99.99
2017-07-29T00:44:42.022Z,99.99
2017-07-29T00:45:41.701Z,99.99
2017-07-29T00:46:41.693Z,99.99
2017-07-29T00:47:41.671Z,99.99
2017-07-29T00:48:41.962Z,99.99
2017-07-29T00:49:41.644Z,99.99
2017-07-29T00:50:41.927Z,99.99
2017-07-29T00:51:41.609Z,99.99
2017-07-29T00:52:41.606Z,99.99
2017-07-29T00:53:41.878Z,99.99
2017-07-29T00:54:41.551Z,99.99
2017-07-29T00:55:41.863Z,99.99
2017-07-29T00:56:41.849Z,99.99
2017-07-29T00:57:41.812Z,99.99
2017-07-29T00:58:41.803Z,99.99
2017-07-29T00:59:41.481Z,99.99
2017-07-29T01:00:41.765Z,99.99
2017-07-29T01:01:41.444Z,99.99
2017-07-29T01:02:41.432Z,99.99
2017-07-29T01:03:41.722Z,99.99
2017-07-29T01:04:41.700Z,99.99
2017-07-29T01:05:41.679Z,99.99
2017-07-29T01:06:41.362Z,99.99
2017-07-29T01:07:41.651Z,99.99
2017-07-29T01:08:41.335Z,99.99
2017-07-29T01:09:41.622Z,99.99
2017-07-29T01:10:41.292Z,99.99
2017-07-29T01:11:41.581Z,99.99
2017-07-29T01:12:41.562Z,99.99
2017-07-29T01:13:41.551Z,99.99
2017-07-29T01:14:41.227Z,99.99
2017-07-29T01:15:41.532Z,99.99
2017-07-29T01:16:41.191Z,99.99
2017-07-29T01:17:41.192Z,99.99
2017-07-29T01:18:41.470Z,99.99
2017-07-29T01:19:41.278Z,99.99
2017-07-29T01:20:41.430Z,99.99
2017-07-29T01:21:41.119Z,99.99
2017-07-29T01:22:41.400Z,99.99
2017-07-29T01:23:41.394Z,99.99
2017-07-29T01:24:41.365Z,99.99
2017-07-29T01:25:41.160Z,99.99
2017-07-29T01:26:41.041Z,99.99
2017-07-29T01:27:41.023Z,99.99
2017-07-29T01:28:41.012Z,99.99
2017-07-29T01:29:41.002Z,99.99
2017-07-29T01:30:40.965Z,99.99
2017-07-29T01:31:40.963Z,99.99
2017-07-29T01:32:40.928Z,99.99
2017-07-29T01:33:41.264Z,99.99
2017-07-29T01:34:41.211Z,99.99
2017-07-29T01:35:41.190Z,99.99
2017-07-29T01:36:41.174Z,99.99
2017-07-29T01:37:40.851Z,99.99
2017-07-29T01:38:40.852Z,99.99
2017-07-29T01:39:40.833Z,99.99
2017-07-29T01:40:41.106Z,99.99
2017-07-29T01:41:40.794Z,99.99
2017-07-29T01:42:41.095Z,99.99
2017-07-29T01:43:41.091Z,99.99
2017-07-29T01:44:41.040Z,99.99
2017-07-29T01:45:41.031Z,99.99
2017-07-29T01:46:41.009Z,99.99
2017-07-29T01:47:41.041Z,99.99
2017-07-29T01:48:40.669Z,99.99
2017-07-29T01:49:40.964Z,99.99
2017-07-29T01:50:40.938Z,99.99
2017-07-29T01:51:40.962Z,99.99
2017-07-29T01:52:40.913Z,99.99
2017-07-29T01:53:40.912Z,99.99
2017-07-29T01:54:40.942Z,99.99
2017-07-29T01:55:40.861Z,99.99
2017-07-29T01:56:40.903Z,99.99
2017-07-29T01:57:40.621Z,99.99
2017-07-29T01:58:40.824Z,99.99
2017-07-29T01:59:40.894Z,99.99
2017-07-29T02:00:40.794Z,99.99
2017-07-29T02:01:40.476Z,99.99
2017-07-29T02:02:40.778Z,99.99
2017-07-29T02:03:40.783Z,99.99
2017-07-29T02:04:40.712Z,99.99
2017-07-29T02:05:40.703Z,99.99
2017-07-29T02:06:40.680Z,99.99
2017-07-29T02:07:40.665Z,99.99
2017-07-29T02:08:40.655Z,99.99
2017-07-29T02:09:40.329Z,99.99
2017-07-29T02:10:40.604Z,99.99
2017-07-29T02:11:40.291Z,99.99
2017-07-29T02:12:40.272Z,99.99
2017-07-29T02:13:40.259Z,99.99
2017-07-29T02:14:40.242Z,99.99
2017-07-29T02:15:40.532Z,99.99
2017-07-29T02:16:40.529Z,99.99
2017-07-29T02:17:40.503Z,99.99
2017-07-29T02:18:40.525Z,99.99
2017-07-29T02:19:40.474Z,99.99
2017-07-29T02:20:40.142Z,99.99
2017-07-29T02:21:40.431Z,99.99
2017-07-29T02:22:40.473Z,99.99
2017-07-29T02:23:40.092Z,99.99
2017-07-29T02:24:40.402Z,99.99
2017-07-29T02:25:40.371Z,99.99
2017-07-29T02:26:40.352Z,99.99
2017-07-29T02:27:40.342Z,99.99
2017-07-29T02:28:40.353Z,99.99
2017-07-29T02:29:40.303Z,99.99
2017-07-29T02:30:40.303Z,99.99
2017-07-29T02:31:40.271Z,99.99
2017-07-29T02:32:40.253Z,99.99
2017-07-29T02:33:40.232Z,99.99
2017-07-29T02:34:40.223Z,99.99
2017-07-29T02:35:40.211Z,99.99
2017-07-29T02:36:39.883Z,99.99
2017-07-29T02:37:40.171Z,99.99
2017-07-29T02:38:40.172Z,99.99
2017-07-29T02:39:40.133Z,99.99
2017-07-29T02:40:40.134Z,99.99
2017-07-29T02:41:39.803Z,99.99
2017-07-29T02:42:39.795Z,99.99
2017-07-29T02:43:40.073Z,99.99
2017-07-29T02:44:39.755Z,99.99
2017-07-29T02:45:40.045Z,99.99
2017-07-29T02:46:40.030Z,99.99
2017-07-29T02:47:40.011Z,99.99
2017-07-29T02:48:39.696Z,99.99
2017-07-29T02:49:39.984Z,99.99
2017-07-29T02:50:39.653Z,99.99
2017-07-29T02:51:39.953Z,99.99
2017-07-29T02:52:39.931Z,99.99
2017-07-29T02:53:39.612Z,99.99
2017-07-29T02:54:39.912Z,99.99
2017-07-29T02:55:39.573Z,99.99
2017-07-29T02:56:39.881Z,99.99
2017-07-29T02:57:39.850Z,99.99
2017-07-29T02:58:39.534Z,99.99
2017-07-29T02:59:39.812Z,99.99
2017-07-29T03:00:39.499Z,99.99
2017-07-29T03:01:39.496Z,99.99
2017-07-29T03:02:39.768Z,99.99
2017-07-29T03:03:39.762Z,99.99
2017-07-29T03:04:39.739Z,99.99
2017-07-29T03:05:39.414Z,99.99
2017-07-29T03:06:39.704Z,99.99
2017-07-29T03:07:39.382Z,99.99
2017-07-29T03:08:39.681Z,99.99
2017-07-29T03:09:39.361Z,99.99
2017-07-29T03:10:39.344Z,99.99
2017-07-29T03:11:39.322Z,99.99
2017-07-29T03:12:39.608Z,99.99
2017-07-29T03:13:39.612Z,99.99
2017-07-29T03:14:39.580Z,99.99
2017-07-29T03:15:39.273Z,99.99
2017-07-29T03:16:39.259Z,99.99
2017-07-29T03:17:39.228Z,99.99
2017-07-29T03:18:39.522Z,99.99
2017-07-29T03:19:39.513Z,99.99
2017-07-29T03:20:39.181Z,99.99
2017-07-29T03:21:39.472Z,99.99
2017-07-29T03:22:39.156Z,99.99
2017-07-29T03:23:39.442Z,99.99
2017-07-29T03:24:39.430Z,99.99
2017-07-29T03:25:39.101Z,99.99
2017-07-29T03:26:39.403Z,99.99
2017-07-29T03:27:39.380Z,99.99
2017-07-29T03:28:39.155Z,99.99
2017-07-29T03:29:39.041Z,99.99
2017-07-29T03:30:39.136Z,99.99
2017-07-29T03:31:39.318Z,99.99
2017-07-29T03:32:39.302Z,99.99
2017-07-29T03:33:39.286Z,99.99
2017-07-29T03:34:39.262Z,99.99
2017-07-29T03:35:38.952Z,99.99
2017-07-29T03:36:39.033Z,99.99
2017-07-29T03:37:38.923Z,99.99
2017-07-29T03:38:39.208Z,99.99
2017-07-29T03:39:39.195Z,99.99
2017-07-29T03:40:38.922Z,99.99
2017-07-29T03:41:39.162Z,99.99
2017-07-29T03:42:39.150Z,99.99
2017-07-29T03:43:39.132Z,99.99
2017-07-29T03:44:38.862Z,99.99
2017-07-29T03:45:38.793Z,99.99
2017-07-29T03:46:39.100Z,99.99
2017-07-29T03:47:38.763Z,99.99
2017-07-29T03:48:39.062Z,99.99
2017-07-29T03:49:38.730Z,99.99
2017-07-29T03:50:39.034Z,99.99
2017-07-29T03:51:38.700Z,99.99
2017-07-29T03:52:38.704Z,99.99
2017-07-29T03:53:38.983Z,99.99
2017-07-29T03:54:38.982Z,99.99
2017-07-29T03:55:38.649Z,99.99
2017-07-29T03:56:38.630Z,99.99
2017-07-29T03:57:38.612Z,99.99
2017-07-29T03:58:38.931Z,99.99
2017-07-29T03:59:38.895Z,99.99
2017-07-29T04:00:38.659Z,99.99
2017-07-29T04:01:38.554Z,99.99
2017-07-29T04:02:38.863Z,99.99
2017-07-29T04:03:38.522Z,99.99
2017-07-29T04:04:38.509Z,99.99
2017-07-29T04:05:38.492Z,99.99
2017-07-29T04:06:38.498Z,99.99
2017-07-29T04:07:38.768Z,99.99
2017-07-29T04:08:38.509Z,99.99
2017-07-29T04:09:38.742Z,99.99
2017-07-29T04:10:38.721Z,99.99
2017-07-29T04:11:38.708Z,99.99
2017-07-29T04:12:38.693Z,99.99
2017-07-29T04:13:38.733Z,99.99
2017-07-29T04:14:38.660Z,99.99
2017-07-29T04:15:38.649Z,99.99
2017-07-29T04:16:38.642Z,99.99
2017-07-29T04:17:38.722Z,99.99
2017-07-29T04:18:38.602Z,99.99
2017-07-29T04:19:38.282Z,99.99
2017-07-29T04:20:38.571Z,99.99
2017-07-29T04:21:38.612Z,99.99
2017-07-29T04:22:38.233Z,99.99
2017-07-29T04:23:38.220Z,99.99
2017-07-29T04:24:38.210Z,99.99
2017-07-29T04:25:38.551Z,99.99
2017-07-29T04:26:38.483Z,99.99
2017-07-29T04:27:38.523Z,99.99
2017-07-29T04:28:38.452Z,99.99
2017-07-29T04:29:38.132Z,99.99
2017-07-29T04:30:38.420Z,99.99
2017-07-29T04:31:38.434Z,99.99
2017-07-29T04:32:38.391Z,99.99
2017-07-29T04:33:38.372Z,99.99
2017-07-29T04:34:38.360Z,99.99
2017-07-29T04:35:38.363Z,99.99
2017-07-29T04:36:38.325Z,99.99
2017-07-29T04:37:38.313Z,99.99
2017-07-29T04:38:38.311Z,99.99
2017-07-29T04:39:38.302Z,99.99
2017-07-29T04:40:38.271Z,99.99
2017-07-29T04:41:38.254Z,99.99
2017-07-29T04:42:37.932Z,99.99
2017-07-29T04:43:38.223Z,99.99
2017-07-29T04:44:37.901Z,99.99
2017-07-29T04:45:38.192Z,99.99
2017-07-29T04:46:38.181Z,99.99
2017-07-29T04:47:38.171Z,99.99
2017-07-29T04:48:38.161Z,99.99
2017-07-29T04:49:37.831Z,99.99
2017-07-29T04:50:38.121Z,99.99
2017-07-29T04:51:37.793Z,99.99
2017-07-29T04:52:37.786Z,99.99
2017-07-29T04:53:38.081Z,99.99
2017-07-29T04:54:38.060Z,99.99
2017-07-29T04:55:38.039Z,99.99
2017-07-29T04:56:38.033Z,99.99
2017-07-29T04:57:38.012Z,99.99
2017-07-29T04:58:37.994Z,99.99
2017-07-29T04:59:37.991Z,99.99
2017-07-29T05:00:37.963Z,99.99
2017-07-29T05:01:37.950Z,99.99
2017-07-29T05:02:37.941Z,99.99
2017-07-29T05:03:37.919Z,99.99
2017-07-29T05:04:37.901Z,99.99
2017-07-29T05:05:37.889Z,99.99
2017-07-29T05:06:37.877Z,99.99
2017-07-29T05:07:37.873Z,99.99
2017-07-29T05:08:37.549Z,99.99
2017-07-29T05:09:37.844Z,99.99
2017-07-29T05:10:37.821Z,99.99
2017-07-29T05:11:37.801Z,99.99
2017-07-29T05:12:37.791Z,99.99
2017-07-29T05:13:37.460Z,99.99
2017-07-29T05:14:37.753Z,99.99
2017-07-29T05:15:37.746Z,99.99
2017-07-29T05:16:37.432Z,99.99
2017-07-29T05:17:37.399Z,99.99
2017-07-29T05:18:37.394Z,99.99
2017-07-29T05:19:37.368Z,99.99
2017-07-29T05:20:37.362Z,99.99
2017-07-29T05:21:37.652Z,99.99
2017-07-29T05:22:37.653Z,99.99
2017-07-29T05:23:37.630Z,99.99
2017-07-29T05:24:37.613Z,99.99
2017-07-29T05:25:37.292Z,99.99
2017-07-29T05:26:37.584Z,99.99
2017-07-29T05:27:37.570Z,99.99
2017-07-29T05:28:37.550Z,99.99
2017-07-29T05:29:37.541Z,99.99
2017-07-29T05:30:37.522Z,99.99
2017-07-29T05:31:37.500Z,99.99
2017-07-29T05:32:37.490Z,99.99
2017-07-29T05:33:37.482Z,99.99
2017-07-29T05:34:37.470Z,99.99
2017-07-29T05:35:37.451Z,99.99
2017-07-29T05:36:37.141Z,99.99
2017-07-29T05:37:37.113Z,99.99
2017-07-29T05:38:37.411Z,99.99
2017-07-29T05:39:37.094Z,99.99
2017-07-29T05:40:37.379Z,99.99
2017-07-29T05:41:37.401Z,99.99
2017-07-29T05:42:37.051Z,99.99
2017-07-29T05:43:37.041Z,99.99
2017-07-29T05:44:37.319Z,99.99
2017-07-29T05:45:37.310Z,99.99
2017-07-29T05:46:37.291Z,99.99
2017-07-29T05:47:36.984Z,99.99
2017-07-29T05:48:37.375Z,99.99
2017-07-29T05:49:37.250Z,99.99
2017-07-29T05:50:37.250Z,99.99
2017-07-29T05:51:37.279Z,99.99
2017-07-29T05:52:36.891Z,99.99
2017-07-29T05:53:37.213Z,99.99
2017-07-29T05:54:36.879Z,99.99
2017-07-29T05:55:36.857Z,99.99
2017-07-29T05:56:36.841Z,99.99
2017-07-29T05:57:36.831Z,99.99
2017-07-29T05:58:37.125Z,99.99
2017-07-29T05:59:36.870Z,99.99
2017-07-29T06:00:37.157Z,99.99
2017-07-29T06:01:36.777Z,99.99
2017-07-29T06:02:37.161Z,99.99
2017-07-29T06:03:37.161Z,99.99
2017-07-29T06:04:37.050Z,99.99
2017-07-29T06:05:36.759Z,99.99
2017-07-29T06:06:37.103Z,99.99
2017-07-29T06:07:36.700Z,99.99
2017-07-29T06:08:37.069Z,99.99
2017-07-29T06:09:37.024Z,99.99
2017-07-29T06:10:36.651Z,99.99
2017-07-29T06:11:36.931Z,99.99
2017-07-29T06:12:36.614Z,99.99
2017-07-29T06:13:36.911Z,99.99
2017-07-29T06:14:36.590Z,99.99
2017-07-29T06:15:36.877Z,99.99
2017-07-29T06:16:36.560Z,99.99
2017-07-29T06:17:36.547Z,99.99
2017-07-29T06:18:36.839Z,99.99
2017-07-29T06:19:36.520Z,99.99
2017-07-29T06:20:36.810Z,99.99
2017-07-29T06:21:36.803Z,99.99
2017-07-29T06:22:36.780Z,99.99
2017-07-29T06:23:36.472Z,99.99
2017-07-29T06:24:36.776Z,99.99
2017-07-29T06:25:36.441Z,99.99
2017-07-29T06:26:36.731Z,99.99
2017-07-29T06:27:36.412Z,99.99
2017-07-29T06:28:36.713Z,99.99
2017-07-29T06:29:36.388Z,99.99
2017-07-29T06:30:36.688Z,99.99
2017-07-29T06:31:36.661Z,99.88
2017-07-29T06:32:36.650Z,99.74
2017-07-29T06:33:36.333Z,99.65
2017-07-29T06:34:36.321Z,99.99
2017-07-29T06:35:36.611Z,99.93
2017-07-29T06:36:36.592Z,98.78
2017-07-29T06:37:36.276Z,99.07
2017-07-29T06:38:36.569Z,98.68
2017-07-29T06:39:36.257Z,98.68
2017-07-29T06:40:36.544Z,99.26
2017-07-29T06:41:36.223Z,99.55
2017-07-29T06:42:36.211Z,99.07
2017-07-29T06:43:36.511Z,98.97
2017-07-29T06:44:36.194Z,98.78
2017-07-29T06:45:36.480Z,98.2
2017-07-29T06:46:36.461Z,98.29
2017-07-29T06:47:36.451Z,98.87
2017-07-29T06:48:36.138Z,98
2017-07-29T06:49:36.441Z,98.87
2017-07-29T06:50:36.415Z,98.68
2017-07-29T06:51:36.093Z,98.2
2017-07-29T06:52:36.087Z,97.81
2017-07-29T06:53:36.372Z,98
2017-07-29T06:54:36.368Z,97.81
2017-07-29T06:55:36.042Z,97.52
2017-07-29T06:56:36.342Z,97.91
2017-07-29T06:57:36.331Z,97.09
2017-07-29T06:58:36.611Z,97.52
2017-07-29T06:59:36.670Z,97.57
2017-07-29T07:00:36.510Z,97.33
2017-07-29T07:01:36.274Z,97.42
2017-07-29T07:02:36.263Z,97.19
2017-07-29T07:03:36.255Z,97.38
2017-07-29T07:04:36.251Z,96.89
2017-07-29T07:05:36.227Z,96.8
2017-07-29T07:06:35.914Z,96.7
2017-07-29T07:07:36.214Z,96.22
2017-07-29T07:08:35.891Z,96.51
2017-07-29T07:09:36.179Z,95.93
2017-07-29T07:10:36.173Z,95.93
2017-07-29T07:11:36.158Z,95.74
2017-07-29T07:12:35.834Z,95.74
2017-07-29T07:13:36.122Z,96.31
2017-07-29T07:14:36.116Z,95.93
2017-07-29T07:15:36.096Z,95.59
2017-07-29T07:16:36.081Z,95.01
2017-07-29T07:17:36.073Z,94.92
2017-07-29T07:18:36.063Z,94.38
2017-07-29T07:19:36.053Z,94.53
2017-07-29T07:20:36.043Z,94.77
2017-07-29T07:21:36.026Z,95.16
2017-07-29T07:22:36.017Z,94.77
2017-07-29T07:23:36.012Z,94.48
2017-07-29T07:24:36.032Z,95.35
2017-07-29T07:25:35.973Z,95.93
2017-07-29T07:26:35.975Z,95.25
2017-07-29T07:27:35.956Z,95.74
2017-07-29T07:28:35.994Z,95.83
2017-07-29T07:29:35.925Z,95.83
2017-07-29T07:30:35.930Z,96.31
2017-07-29T07:31:35.906Z,96.61
2017-07-29T07:32:35.940Z,96.12
2017-07-29T07:33:35.876Z,96.31
2017-07-29T07:34:35.886Z,96.31
2017-07-29T07:35:35.856Z,95.83
2017-07-29T07:36:35.524Z,95.74
2017-07-29T07:37:35.524Z,95.25
2017-07-29T07:38:35.502Z,96.03
2017-07-29T07:39:35.497Z,96.03
2017-07-29T07:40:35.792Z,96.22
2017-07-29T07:41:35.468Z,96.03
2017-07-29T07:42:35.761Z,96.03
2017-07-29T07:43:35.438Z,95.74
2017-07-29T07:44:35.732Z,95.06
2017-07-29T07:45:35.721Z,94.82
2017-07-29T07:46:35.412Z,94.38
2017-07-29T07:47:35.702Z,95.25
2017-07-29T07:48:35.375Z,95.45
2017-07-29T07:49:35.661Z,95.16
2017-07-29T07:50:35.655Z,95.93
2017-07-29T07:51:35.642Z,95.5
2017-07-29T07:52:35.637Z,95.11
2017-07-29T07:53:35.625Z,95.11
2017-07-29T07:54:35.614Z,95.4
2017-07-29T07:55:35.278Z,95.06
2017-07-29T07:56:35.580Z,95.3
2017-07-29T07:57:35.570Z,95.3
2017-07-29T07:58:35.562Z,95.25
2017-07-29T07:59:35.561Z,95.54
2017-07-29T08:00:35.530Z,95.06
2017-07-29T08:01:35.514Z,95.06
2017-07-29T08:02:35.501Z,95.45
2017-07-29T08:03:35.493Z,95.45
2017-07-29T08:04:35.483Z,95.83
2017-07-29T08:05:35.471Z,95.93
2017-07-29T08:06:35.466Z,95.83
2017-07-29T08:07:35.460Z,95.93
2017-07-29T08:08:35.437Z,95.93
2017-07-29T08:09:35.411Z,96.12
2017-07-29T08:10:35.100Z,96.03
2017-07-29T08:11:35.190Z,96.12
2017-07-29T08:12:35.379Z,96.51
2017-07-29T08:13:35.112Z,96.99
2017-07-29T08:14:35.356Z,96.41
2017-07-29T08:15:35.340Z,96.12
2017-07-29T08:16:35.030Z,96.03
2017-07-29T08:17:35.320Z,96.03
2017-07-29T08:18:35.310Z,96.08
2017-07-29T08:19:35.035Z,95.01
2017-07-29T08:20:34.971Z,95.2
2017-07-29T08:21:34.969Z,95.4
2017-07-29T08:22:35.254Z,95.5
2017-07-29T08:23:35.259Z,95.59
2017-07-29T08:24:35.245Z,96.08
2017-07-29T08:25:35.026Z,95.98
2017-07-29T08:26:35.311Z,95.98
2017-07-29T08:27:35.270Z,96.26
2017-07-29T08:28:35.190Z,96.46
2017-07-29T08:29:35.269Z,97.67
2017-07-29T08:30:35.158Z,97.77
2017-07-29T08:31:34.899Z,97.77
2017-07-29T08:32:35.130Z,97.81
2017-07-29T08:33:35.129Z,98.15
2017-07-29T08:34:34.837Z,98.15
2017-07-29T08:35:35.157Z,97.38
2017-07-29T08:36:35.082Z,97.38
2017-07-29T08:37:34.762Z,96.75
2017-07-29T08:38:35.058Z,96.8
2017-07-29T08:39:34.729Z,97.24
2017-07-29T08:40:35.023Z,97.09
2017-07-29T08:41:34.717Z,97.67
2017-07-29T08:42:35.010Z,97.33
2017-07-29T08:43:34.999Z,96.46
2017-07-29T08:44:35.093Z,96.56
2017-07-29T08:45:34.968Z,97.24
2017-07-29T08:46:35.053Z,97.57
2017-07-29T08:47:34.940Z,97.86
2017-07-29T08:48:34.959Z,97.86
2017-07-29T08:49:34.621Z,97.19
2017-07-29T08:50:34.603Z,97.28
2017-07-29T08:51:34.902Z,97.42
2017-07-29T08:52:34.578Z,97.33
2017-07-29T08:53:34.860Z,97.96
2017-07-29T08:54:34.550Z,97.96
2017-07-29T08:55:34.844Z,98.25
2017-07-29T08:56:34.847Z,98.05
2017-07-29T08:57:34.839Z,98.25
2017-07-29T08:58:34.501Z,97.57
2017-07-29T08:59:34.793Z,98.25
2017-07-29T09:00:34.781Z,98.25
2017-07-29T09:01:34.775Z,97.96
2017-07-29T09:02:34.757Z,99.02
2017-07-29T09:03:34.734Z,98.3
2017-07-29T09:04:34.423Z,98.05
2017-07-29T09:05:34.409Z,98.39
2017-07-29T09:06:34.708Z,98
2017-07-29T09:07:34.683Z,97.81
2017-07-29T09:08:34.688Z,98
2017-07-29T09:09:34.663Z,97.72
2017-07-29T09:10:34.348Z,97.81
2017-07-29T09:11:34.655Z,98
2017-07-29T09:12:34.640Z,98.78
2017-07-29T09:13:34.308Z,97.81
2017-07-29T09:14:34.311Z,97.62
2017-07-29T09:15:34.291Z,97.42
2017-07-29T09:16:34.281Z,97.52
2017-07-29T09:17:34.579Z,97.67
2017-07-29T09:18:34.562Z,97.52
2017-07-29T09:19:34.551Z,97.72
2017-07-29T09:20:34.529Z,97.42
2017-07-29T09:21:34.517Z,97.77
2017-07-29T09:22:34.508Z,97.57
2017-07-29T09:23:34.503Z,97.86
2017-07-29T09:24:34.493Z,97.47
2017-07-29T09:25:34.469Z,97.47
2017-07-29T09:26:34.462Z,97.47
2017-07-29T09:27:34.151Z,97.57
2017-07-29T09:28:34.133Z,96.99
2017-07-29T09:29:34.446Z,96.7
2017-07-29T09:30:34.099Z,96.61
2017-07-29T09:31:34.106Z,97.09
2017-07-29T09:32:34.390Z,96.99
2017-07-29T09:33:34.071Z,96.99
2017-07-29T09:34:34.383Z,96.8
2017-07-29T09:35:34.040Z,96.89
2017-07-29T09:36:34.341Z,96.99
2017-07-29T09:37:34.343Z,96.99
2017-07-29T09:38:34.321Z,96.61
2017-07-29T09:39:34.006Z,96.31
2017-07-29T09:40:34.299Z,96.41
2017-07-29T09:41:33.971Z,96.7
2017-07-29T09:42:33.962Z,96.7
2017-07-29T09:43:33.971Z,96.7
2017-07-29T09:44:33.939Z,96.31
2017-07-29T09:45:34.245Z,96.22
2017-07-29T09:46:33.917Z,96.61
2017-07-29T09:47:33.909Z,97.19
2017-07-29T09:48:34.203Z,97.14
2017-07-29T09:49:34.205Z,96.99
2017-07-29T09:50:34.182Z,96.8
2017-07-29T09:51:33.850Z,96.7
2017-07-29T09:52:34.159Z,96.89
2017-07-29T09:53:34.139Z,97.19
2017-07-29T09:54:34.139Z,97.28
2017-07-29T09:55:34.119Z,97.28
2017-07-29T09:56:34.099Z,97.67
2017-07-29T09:57:34.089Z,97.47
2017-07-29T09:58:33.783Z,97.67
2017-07-29T09:59:33.761Z,97.38
2017-07-29T10:00:34.060Z,97.47
2017-07-29T10:01:34.034Z,97.09
2017-07-29T10:02:34.031Z,97.19
2017-07-29T10:03:33.719Z,97.47
2017-07-29T10:04:33.701Z,97.86
2017-07-29T10:05:33.680Z,97.96
2017-07-29T10:06:33.684Z,98.05
2017-07-29T10:07:33.671Z,98.2
2017-07-29T10:08:33.960Z,98.35
2017-07-29T10:09:33.950Z,97.28
2017-07-29T10:10:33.936Z,97.28
2017-07-29T10:11:33.612Z,97.04
2017-07-29T10:12:33.911Z,96.56
2017-07-29T10:13:33.900Z,96.17
2017-07-29T10:14:33.927Z,96.36
2017-07-29T10:15:33.869Z,96.46
2017-07-29T10:16:33.860Z,95.34
2017-07-29T10:17:33.851Z,95.06
2017-07-29T10:18:33.850Z,95.34
2017-07-29T10:19:33.832Z,94.62
2017-07-29T10:20:33.822Z,95.01
2017-07-29T10:21:33.812Z,94.57
2017-07-29T10:22:33.804Z,94.76
2017-07-29T10:23:33.785Z,94.57
2017-07-29T10:24:33.766Z,94.67
2017-07-29T10:25:33.764Z,94.81
2017-07-29T10:26:33.756Z,94.04
2017-07-29T10:27:33.741Z,93.75
2017-07-29T10:28:33.731Z,93.46
2017-07-29T10:29:33.733Z,93.02
2017-07-29T10:30:33.731Z,93.65
2017-07-29T10:31:33.715Z,94.13
2017-07-29T10:32:33.381Z,93.65
2017-07-29T10:33:33.684Z,93.85
2017-07-29T10:34:33.671Z,93.85
2017-07-29T10:35:33.662Z,93.65
2017-07-29T10:36:33.715Z,93.65
2017-07-29T10:37:33.648Z,94.33
2017-07-29T10:38:33.669Z,94.48
2017-07-29T10:39:33.622Z,94.48
2017-07-29T10:40:33.613Z,94.43
2017-07-29T10:41:33.687Z,94.62
2017-07-29T10:42:33.664Z,94.33
2017-07-29T10:43:33.654Z,93.17
2017-07-29T10:44:33.250Z,93.94
2017-07-29T10:45:33.552Z,94.13
2017-07-29T10:46:33.540Z,94.04
2017-07-29T10:47:33.543Z,94.23
2017-07-29T10:48:33.514Z,94.67
2017-07-29T10:49:33.541Z,95.06
2017-07-29T10:50:33.511Z,94.81
2017-07-29T10:51:33.538Z,94.57
2017-07-29T10:52:33.522Z,94.96
2017-07-29T10:53:33.502Z,95.54
2017-07-29T10:54:33.461Z,95.78
2017-07-29T10:55:33.479Z,95.98
2017-07-29T10:56:33.482Z,95.44
2017-07-29T10:57:33.111Z,95.73
2017-07-29T10:58:33.132Z,96.17
2017-07-29T10:59:33.392Z,95.98
2017-07-29T11:00:33.061Z,95.78
2017-07-29T11:01:33.363Z,96.17
2017-07-29T11:02:33.410Z,96.65
2017-07-29T11:03:33.341Z,96.56
2017-07-29T11:04:33.321Z,96.07
2017-07-29T11:05:33.312Z,96.36
2017-07-29T11:06:33.313Z,96.26
2017-07-29T11:07:32.980Z,96.46
2017-07-29T11:08:33.300Z,96.89
2017-07-29T11:09:33.268Z,96.41
2017-07-29T11:10:33.260Z,96.89
2017-07-29T11:11:33.250Z,96.75
2017-07-29T11:12:33.232Z,96.75
2017-07-29T11:13:33.221Z,96.84
2017-07-29T11:14:33.217Z,96.99
2017-07-29T11:15:33.186Z,96.7
2017-07-29T11:16:33.183Z,96.41
2017-07-29T11:17:33.171Z,96.31
2017-07-29T11:18:33.170Z,95.54
2017-07-29T11:19:33.151Z,95.49
2017-07-29T11:20:33.146Z,95.01
2017-07-29T11:21:33.120Z,95.01
2017-07-29T11:22:33.109Z,94.71
2017-07-29T11:23:33.111Z,95.39
2017-07-29T11:24:33.093Z,94.81
2017-07-29T11:25:33.081Z,94.81
2017-07-29T11:26:33.080Z,94.91
2017-07-29T11:27:33.060Z,95.29
2017-07-29T11:28:33.061Z,94.52
2017-07-29T11:29:32.730Z,95.01
2017-07-29T11:30:32.710Z,95.29
2017-07-29T11:31:33.011Z,95.1
2017-07-29T11:32:32.993Z,95.01
2017-07-29T11:33:32.683Z,95.49
2017-07-29T11:34:32.969Z,95.49
2017-07-29T11:35:32.967Z,95.64
2017-07-29T11:36:32.959Z,95.54
2017-07-29T11:37:32.968Z,95.44
2017-07-29T11:38:32.938Z,95.64
2017-07-29T11:39:32.611Z,95.54
2017-07-29T11:40:32.901Z,95.93
2017-07-29T11:41:32.889Z,96.89
2017-07-29T11:42:32.879Z,96.22
2017-07-29T11:43:32.876Z,96.6
2017-07-29T11:44:32.861Z,96.41
2017-07-29T11:45:32.856Z,96.51
2017-07-29T11:46:32.532Z,95.93
2017-07-29T11:47:32.820Z,95.93
2017-07-29T11:48:32.811Z,95.83
2017-07-29T11:49:32.801Z,96.41
2017-07-29T11:50:32.788Z,96.22
2017-07-29T11:51:32.781Z,95.93
2017-07-29T11:52:32.465Z,96.22
2017-07-29T11:53:32.762Z,94.81
2017-07-29T11:54:32.746Z,94.91
2017-07-29T11:55:32.730Z,93.79
2017-07-29T11:56:32.730Z,93.51
2017-07-29T11:57:32.712Z,93.12
2017-07-29T11:58:32.393Z,93.31
2017-07-29T11:59:32.701Z,92.77
2017-07-29T12:00:32.682Z,92.19
2017-07-29T12:01:32.657Z,93.4
2017-07-29T12:02:32.657Z,90.98
2017-07-29T12:03:32.640Z,90.16
2017-07-29T12:04:32.326Z,89.23
2017-07-29T12:05:32.313Z,89.23
2017-07-29T12:06:32.610Z,87.43
2017-07-29T12:07:32.620Z,88.01
2017-07-29T12:08:32.291Z,88.55
2017-07-29T12:09:32.582Z,88.84
2017-07-29T12:10:32.576Z,88.6
2017-07-29T12:11:32.562Z,88.99
2017-07-29T12:12:32.553Z,89.18
2017-07-29T12:13:32.553Z,90.2
2017-07-29T12:14:32.540Z,89.92
2017-07-29T12:15:32.524Z,90.5
2017-07-29T12:16:32.534Z,90.5
2017-07-29T12:17:32.511Z,90.16
2017-07-29T12:18:32.504Z,90.4
2017-07-29T12:19:32.499Z,91.08
2017-07-29T12:20:32.169Z,90.74
2017-07-29T12:21:32.464Z,91.03
2017-07-29T12:22:32.145Z,90.88
2017-07-29T12:23:32.437Z,90.69
2017-07-29T12:24:32.444Z,91.47
2017-07-29T12:25:32.420Z,90.73
2017-07-29T12:26:32.422Z,90.44
2017-07-29T12:27:32.402Z,89.86
2017-07-29T12:28:32.382Z,90.25
2017-07-29T12:29:32.382Z,90.25
2017-07-29T12:30:32.373Z,89.86
2017-07-29T12:31:32.363Z,89.47
2017-07-29T12:32:32.348Z,89.67
2017-07-29T12:33:32.038Z,89.82
2017-07-29T12:34:32.319Z,90.5
2017-07-29T12:35:32.388Z,90.4
2017-07-29T12:36:32.312Z,90.11
2017-07-29T12:37:31.993Z,90.3
2017-07-29T12:38:32.282Z,90.55
2017-07-29T12:39:31.973Z,90.26
2017-07-29T12:40:32.271Z,90.64
2017-07-29T12:41:31.941Z,90.64
2017-07-29T12:42:32.243Z,90.36
2017-07-29T12:43:32.231Z,90.64
2017-07-29T12:44:32.213Z,90.99
2017-07-29T12:45:32.372Z,90.94
2017-07-29T12:46:31.903Z,90.94
2017-07-29T12:47:32.273Z,91.13
2017-07-29T12:48:32.170Z,90.55
2017-07-29T12:49:31.862Z,91.47
2017-07-29T12:50:32.162Z,90.55
2017-07-29T12:51:32.141Z,92.05
2017-07-29T12:52:32.130Z,91.42
2017-07-29T12:53:32.123Z,91.28
2017-07-29T12:54:31.812Z,91.42